Indianapolis, Indiana
Traffic Map
Current Weather Conditions
Indianapolis, Indiana
Broken Clouds
Broken Clouds
22°
Feels Like: 22°
Wind Chill: 22° Ceiling: 5500
Heat Index: 22° Visibility: 10mi
Dew Point: 12° Wind: 16mph
Humidity: 55% Direction: 340° (NNW)
Pressure: 30.02in Gusts: 25mph
Raw Report DataKIND 281954Z 34014G22KT 10SM FEW035 BKN055 22/12 A3002 RMK AO2 SLP160 T02170122 $
Traffic Incident Summary
Active as of:
Severity:
Category:
InformationThere was an issue retrieving the traffic information for this location. Please try a different location or try again shortly.
Advertisements
Track Severe Weather on mobile